Time;durP1;ratioP1;P1;durP2;ratioP2;P2;SDS_P1;SDS_P2;PMS_P1;PMS_P2;Temp;Humidity;BMP_temperature;BMP_pressure;BME280_temperature;BME280_humidity;BME280_pressure;Samples;Min_cycle;Max_cycle;Signal;HPM_P1;HPM_P2
2022/03/02 00:02:21;;;;;;;1.67;1.57;;;2.90;99.90;;;;;;5070640;28;20230;-63
2022/03/02 00:04:48;;;;;;;1.70;1.60;;;3.00;99.90;;;;;;5069483;28;20207;-64
2022/03/02 00:07:15;;;;;;;1.73;1.63;;;3.10;99.90;;;;;;5069607;28;20304;-64
2022/03/02 00:09:42;;;;;;;1.70;1.60;;;3.00;99.90;;;;;;5070262;28;20913;-63
2022/03/02 00:12:09;;;;;;;1.80;1.70;;;3.00;99.90;;;;;;5070352;28;20285;-63
2022/03/02 00:14:38;;;;;;;1.70;1.60;;;3.00;99.90;;;;;;5069460;28;20231;-64
2022/03/02 00:17:05;;;;;;;1.70;1.60;;;3.00;99.90;;;;;;5069632;28;20223;-62
2022/03/02 00:19:32;;;;;;;1.73;1.63;;;3.00;99.90;;;;;;5069766;28;20235;-63
2022/03/02 00:21:58;;;;;;;1.40;1.40;;;3.00;99.90;;;;;;5070173;28;20207;-61
2022/03/02 00:24:25;;;;;;;1.80;1.70;;;3.00;99.90;;;;;;5069283;28;20312;-63
2022/03/02 00:26:52;;;;;;;1.70;1.60;;;3.00;99.90;;;;;;5069555;28;20251;-65
2022/03/02 00:29:19;;;;;;;1.83;1.73;;;3.00;99.90;;;;;;5069311;28;20235;-62
2022/03/02 00:31:48;;;;;;;1.60;1.50;;;3.00;99.90;;;;;;5066962;28;20282;-63
2022/03/02 00:34:15;;;;;;;1.70;1.60;;;3.00;99.90;;;;;;5068430;28;20294;-62
2022/03/02 00:36:42;;;;;;;1.67;1.57;;;3.00;99.90;;;;;;5069955;28;20222;-63
2022/03/02 00:39:10;;;;;;;1.70;1.60;;;3.00;99.90;;;;;;5069770;28;20203;-63
2022/03/02 00:41:37;;;;;;;1.73;1.63;;;2.90;99.90;;;;;;5069148;28;20661;-62
2022/03/02 00:44:04;;;;;;;1.67;1.57;;;2.90;99.90;;;;;;5068944;28;20290;-63
2022/03/02 00:46:32;;;;;;;2.13;1.93;;;2.90;99.90;;;;;;5064957;28;20289;-64
2022/03/02 00:49:01;;;;;;;1.70;1.60;;;2.90;99.90;;;;;;5071889;28;20264;-63
2022/03/02 00:51:29;;;;;;;1.90;1.80;;;2.90;99.90;;;;;;5070791;28;21129;-63
2022/03/02 00:53:58;;;;;;;1.80;1.70;;;2.90;99.90;;;;;;5070743;28;20825;-62
2022/03/02 00:56:25;;;;;;;1.63;1.52;;;2.80;99.90;;;;;;5069925;28;20921;-62
2022/03/02 00:58:52;;;;;;;1.90;1.80;;;2.80;99.90;;;;;;5069291;28;20894;-62
2022/03/02 01:01:19;;;;;;;1.88;1.77;;;2.90;99.90;;;;;;5068782;28;20337;-63
2022/03/02 01:03:46;;;;;;;1.73;1.63;;;2.90;99.90;;;;;;5066071;28;20296;-63
2022/03/02 01:06:14;;;;;;;1.70;1.60;;;2.90;99.90;;;;;;5068955;28;20716;-64
2022/03/02 01:08:41;;;;;;;1.50;1.50;;;2.90;99.90;;;;;;5069005;28;20597;-64
2022/03/02 01:11:08;;;;;;;1.90;1.80;;;3.00;99.90;;;;;;5068656;28;20326;-63
2022/03/02 01:13:35;;;;;;;2.13;2.03;;;3.00;99.90;;;;;;5069617;28;20286;-64
2022/03/02 01:16:03;;;;;;;2.10;2.00;;;3.00;99.90;;;;;;5069590;28;20580;-63
2022/03/02 01:18:30;;;;;;;1.87;1.77;;;2.90;99.90;;;;;;5069330;28;20252;-64
2022/03/02 01:20:58;;;;;;;2.03;1.92;;;2.80;99.90;;;;;;5068835;28;20226;-61
2022/03/02 01:23:26;;;;;;;1.90;1.80;;;2.80;99.90;;;;;;5068948;28;20662;-63
2022/03/02 01:25:53;;;;;;;1.90;1.80;;;2.70;99.90;;;;;;5069205;28;20310;-63
2022/03/02 01:28:21;;;;;;;1.50;1.50;;;2.70;99.90;;;;;;5069418;28;20685;-61
2022/03/02 01:30:47;;;;;;;1.70;1.60;;;2.70;99.90;;;;;;5066650;28;20303;-64
2022/03/02 01:33:14;;;;;;;1.70;1.60;;;2.70;99.90;;;;;;5069131;28;20301;-64
2022/03/02 01:35:41;;;;;;;1.80;1.70;;;2.70;99.90;;;;;;5069289;28;20296;-63
2022/03/02 01:38:08;;;;;;;2.88;1.80;;;2.70;99.90;;;;;;5069780;28;20199;-63
2022/03/02 01:40:36;;;;;;;1.95;1.67;;;2.60;99.90;;;;;;5069027;28;20294;-62
2022/03/02 01:43:04;;;;;;;1.80;1.70;;;2.60;99.90;;;;;;5069270;28;20621;-64
2022/03/02 01:45:31;;;;;;;1.60;1.50;;;2.50;99.90;;;;;;5069635;28;21007;-64
2022/03/02 01:47:59;;;;;;;1.70;1.60;;;2.50;99.90;;;;;;5069920;28;20675;-64
2022/03/02 01:50:26;;;;;;;2.00;1.90;;;2.40;99.90;;;;;;5069511;28;20630;-64
2022/03/02 01:52:53;;;;;;;1.77;1.67;;;2.40;99.90;;;;;;5083265;28;20214;-61
2022/03/02 01:55:21;;;;;;;1.77;1.67;;;2.40;99.90;;;;;;5083049;28;20200;-62
2022/03/02 01:57:50;;;;;;;1.60;1.50;;;2.40;99.90;;;;;;5070516;28;20200;-62
2022/03/02 02:00:20;;;;;;;1.70;1.60;;;2.40;99.90;;;;;;5066382;28;20210;-64
2022/03/02 02:02:48;;;;;;;1.90;1.80;;;2.40;99.90;;;;;;5074201;28;20246;-61
2022/03/02 02:05:16;;;;;;;1.87;1.77;;;2.40;99.90;;;;;;5075293;28;20244;-62
2022/03/02 02:07:43;;;;;;;1.50;1.40;;;2.40;99.90;;;;;;5077544;28;20208;-64
2022/03/02 02:10:11;;;;;;;2.00;1.90;;;2.40;99.90;;;;;;5075759;28;20223;-62
2022/03/02 02:12:38;;;;;;;1.70;1.60;;;2.40;99.90;;;;;;5075395;28;20199;-62
2022/03/02 02:15:09;;;;;;;1.80;1.70;;;2.50;99.90;;;;;;5083909;28;20291;-65
2022/03/02 02:17:36;;;;;;;1.90;1.80;;;2.40;99.90;;;;;;5073396;28;20260;-64
2022/03/02 02:20:06;;;;;;;1.93;1.83;;;2.40;99.90;;;;;;5061359;28;20205;-63
2022/03/02 02:22:38;;;;;;;1.90;1.80;;;2.40;99.90;;;;;;5071300;28;20199;-62
2022/03/02 02:25:06;;;;;;;2.03;1.83;;;2.40;99.90;;;;;;5053317;28;20203;-63
2022/03/02 02:27:33;;;;;;;1.90;1.80;;;2.30;99.90;;;;;;5095235;22;20227;-66
2022/03/02 02:30:01;;;;;;;1.73;1.63;;;2.20;99.90;;;;;;5070955;28;20661;-65
2022/03/02 02:32:29;;;;;;;2.10;2.00;;;2.10;99.90;;;;;;5065201;28;20617;-65
2022/03/02 02:34:57;;;;;;;1.80;1.70;;;2.10;99.90;;;;;;5073731;28;20736;-66
2022/03/02 02:37:25;;;;;;;1.90;1.80;;;2.00;99.90;;;;;;5073701;28;20230;-65
2022/03/02 02:39:59;;;;;;;1.70;1.60;;;2.00;99.90;;;;;;5073928;28;20227;-64
2022/03/02 02:42:27;;;;;;;1.80;1.70;;;2.00;99.90;;;;;;5073552;28;20298;-65
2022/03/02 02:44:55;;;;;;;1.77;1.67;;;2.00;99.90;;;;;;5073693;28;20213;-64
2022/03/02 02:47:22;;;;;;;1.95;1.80;;;2.00;99.90;;;;;;5073546;28;20783;-65
2022/03/02 02:49:49;;;;;;;1.77;1.67;;;2.00;99.90;;;;;;5073771;28;20299;-65
2022/03/02 02:52:16;;;;;;;1.83;1.73;;;2.00;99.90;;;;;;5074167;28;20318;-64
2022/03/02 02:54:43;;;;;;;1.90;1.80;;;2.00;99.90;;;;;;5078202;28;20227;-66
2022/03/02 02:57:11;;;;;;;1.90;1.80;;;2.00;99.90;;;;;;5080693;28;20227;-65
2022/03/02 02:59:38;;;;;;;1.80;1.70;;;2.00;99.90;;;;;;5079531;28;20279;-65
2022/03/02 03:02:05;;;;;;;1.70;1.60;;;2.00;99.90;;;;;;5081220;28;20744;-66
2022/03/02 03:04:32;;;;;;;1.80;1.70;;;2.00;99.90;;;;;;5077802;28;20337;-65
2022/03/02 03:06:59;;;;;;;1.55;1.45;;;1.90;99.90;;;;;;5076595;28;20233;-64
2022/03/02 03:09:26;;;;;;;1.65;1.60;;;1.90;99.90;;;;;;5076244;28;20230;-65
2022/03/02 03:11:54;;;;;;;1.50;1.50;;;1.90;99.90;;;;;;5066970;28;20263;-66
2022/03/02 03:14:22;;;;;;;1.67;1.57;;;1.90;99.90;;;;;;5067472;28;20581;-65
2022/03/02 03:16:49;;;;;;;1.80;1.70;;;2.00;99.90;;;;;;5075241;28;20233;-65
2022/03/02 03:19:17;;;;;;;1.77;1.67;;;1.90;99.90;;;;;;5075648;28;20447;-65
2022/03/02 03:21:43;;;;;;;1.40;1.40;;;1.90;99.90;;;;;;5074772;28;20210;-65
2022/03/02 03:24:10;;;;;;;2.22;1.80;;;1.90;99.90;;;;;;5074939;28;20238;-65
2022/03/02 03:26:37;;;;;;;1.70;1.60;;;1.90;99.90;;;;;;5074959;28;20398;-65
2022/03/02 03:29:04;;;;;;;1.67;1.58;;;1.80;99.90;;;;;;5075435;28;20290;-64
2022/03/02 03:31:32;;;;;;;1.60;1.58;;;1.80;99.90;;;;;;5074323;28;20215;-65
2022/03/02 03:33:59;;;;;;;1.85;1.75;;;1.70;99.90;;;;;;5073002;28;20302;-64
2022/03/02 03:36:26;;;;;;;1.63;1.57;;;1.70;99.90;;;;;;5073303;28;20227;-65
2022/03/02 03:38:54;;;;;;;1.75;1.65;;;1.70;99.90;;;;;;5070310;28;20204;-64
2022/03/02 03:41:20;;;;;;;1.80;1.70;;;1.60;99.90;;;;;;5069432;28;20203;-65
2022/03/02 03:43:47;;;;;;;1.65;1.60;;;1.50;99.90;;;;;;5066703;28;20293;-64
2022/03/02 03:46:14;;;;;;;1.70;1.60;;;1.50;99.90;;;;;;5072283;28;20234;-65
2022/03/02 03:48:42;;;;;;;1.67;1.58;;;1.60;99.90;;;;;;5073070;28;20231;-64
2022/03/02 03:51:09;;;;;;;1.50;1.50;;;1.60;99.90;;;;;;5072186;28;20306;-64
2022/03/02 03:53:36;;;;;;;1.83;1.73;;;1.60;99.90;;;;;;5072803;28;20294;-64
2022/03/02 03:56:03;;;;;;;1.73;1.63;;;1.50;99.90;;;;;;5072269;28;20237;-64
2022/03/02 03:58:30;;;;;;;1.73;1.67;;;1.50;99.90;;;;;;5072174;28;20203;-64
2022/03/02 04:00:58;;;;;;;2.00;1.90;;;1.50;99.90;;;;;;5072499;28;20237;-65
2022/03/02 04:03:25;;;;;;;1.80;1.70;;;1.50;99.90;;;;;;5071705;28;20337;-64
2022/03/02 04:05:54;;;;;;;1.80;1.70;;;1.40;99.90;;;;;;5071855;28;20297;-65
2022/03/02 04:08:22;;;;;;;1.70;1.60;;;1.40;99.90;;;;;;5071844;28;20241;-65
2022/03/02 04:10:49;;;;;;;1.90;1.80;;;1.40;99.90;;;;;;5071337;28;20223;-65
2022/03/02 04:13:16;;;;;;;1.60;1.50;;;1.30;99.90;;;;;;5071369;28;20203;-64
2022/03/02 04:15:43;;;;;;;1.70;1.60;;;1.40;99.90;;;;;;5072331;28;20276;-64
2022/03/02 04:18:11;;;;;;;1.90;1.80;;;1.40;99.90;;;;;;5072793;28;20229;-64
2022/03/02 04:20:38;;;;;;;1.70;1.60;;;1.40;99.90;;;;;;5072718;28;20203;-64
2022/03/02 04:23:08;;;;;;;1.80;1.70;;;1.40;99.90;;;;;;5073915;28;20241;-64
2022/03/02 04:25:35;;;;;;;1.80;1.70;;;1.40;99.90;;;;;;5072374;28;20315;-64
2022/03/02 04:28:02;;;;;;;1.75;1.65;;;1.40;99.90;;;;;;5071968;28;20211;-65
2022/03/02 04:30:30;;;;;;;1.50;1.50;;;1.50;99.90;;;;;;5072377;28;20309;-64
2022/03/02 04:32:57;;;;;;;1.85;1.75;;;1.40;99.90;;;;;;5080998;28;20313;-65
2022/03/02 04:35:24;;;;;;;1.60;1.50;;;1.40;99.90;;;;;;5082922;28;20210;-65
2022/03/02 04:37:52;;;;;;;1.70;1.60;;;1.40;99.90;;;;;;5080586;28;20314;-64
2022/03/02 04:40:21;;;;;;;1.70;1.60;;;1.40;99.90;;;;;;5076031;28;20231;-63
2022/03/02 04:42:47;;;;;;;2.10;1.90;;;1.40;99.90;;;;;;5065206;28;20282;-64
2022/03/02 04:45:14;;;;;;;1.57;1.57;;;1.40;99.90;;;;;;5071162;28;20292;-63
2022/03/02 04:47:42;;;;;;;1.70;1.60;;;1.60;99.90;;;;;;5070544;28;20231;-64
2022/03/02 04:50:11;;;;;;;1.87;1.77;;;1.40;99.90;;;;;;5071133;28;20534;-64
2022/03/02 04:52:38;;;;;;;1.70;1.60;;;1.40;99.90;;;;;;5071059;28;20227;-66
2022/03/02 04:55:09;;;;;;;1.70;1.60;;;1.40;99.90;;;;;;5071468;28;20301;-64
2022/03/02 04:57:41;;;;;;;1.48;1.40;;;1.40;99.90;;;;;;5071247;28;20223;-64
2022/03/02 05:00:11;;;;;;;1.80;1.70;;;1.50;99.90;;;;;;5071035;28;20240;-65
2022/03/02 05:02:38;;;;;;;1.63;1.52;;;1.50;99.90;;;;;;5071096;28;20184;-65
2022/03/02 05:05:07;;;;;;;1.90;1.80;;;1.50;99.90;;;;;;5070871;28;20231;-65
2022/03/02 05:07:34;;;;;;;2.00;1.90;;;1.50;99.90;;;;;;5071328;28;20249;-65
2022/03/02 05:10:01;;;;;;;1.80;1.70;;;1.50;99.90;;;;;;5070788;28;20298;-64
2022/03/02 05:12:28;;;;;;;1.80;1.70;;;1.50;99.90;;;;;;5070394;28;20353;-63
2022/03/02 05:14:56;;;;;;;1.52;1.50;;;1.50;99.90;;;;;;5070801;28;20203;-65
2022/03/02 05:17:23;;;;;;;1.67;1.60;;;1.40;99.90;;;;;;5071198;28;20665;-65
2022/03/02 05:19:50;;;;;;;1.63;1.52;;;1.40;99.90;;;;;;5070347;28;20207;-64
2022/03/02 05:22:17;;;;;;;1.73;1.63;;;1.40;99.90;;;;;;5070807;28;20290;-63
2022/03/02 05:24:44;;;;;;;1.80;1.70;;;1.30;99.90;;;;;;5077093;28;20203;-65
2022/03/02 05:27:11;;;;;;;1.77;1.67;;;1.30;99.90;;;;;;5087324;28;20250;-65
2022/03/02 05:29:38;;;;;;;1.70;1.60;;;1.30;99.90;;;;;;5077372;28;20237;-64
2022/03/02 05:32:07;;;;;;;1.65;1.55;;;1.30;99.90;;;;;;5066406;28;20622;-65
2022/03/02 05:34:34;;;;;;;2.00;1.80;;;1.30;99.90;;;;;;5054167;28;20286;-65
2022/03/02 05:37:01;;;;;;;1.77;1.67;;;1.20;99.90;;;;;;5056691;28;20305;-64
2022/03/02 05:39:28;;;;;;;2.00;1.90;;;1.20;99.90;;;;;;5076479;28;20297;-65
2022/03/02 05:41:55;;;;;;;1.90;1.80;;;1.10;99.90;;;;;;5082888;28;20622;-64
2022/03/02 05:44:22;;;;;;;1.80;1.70;;;1.10;99.90;;;;;;5066844;28;20234;-64
2022/03/02 05:46:50;;;;;;;1.77;1.67;;;1.10;99.90;;;;;;5074401;28;20227;-64
2022/03/02 05:49:18;;;;;;;1.83;1.73;;;1.00;99.90;;;;;;5074245;28;20295;-65
2022/03/02 05:51:45;;;;;;;1.85;1.75;;;1.00;99.90;;;;;;5076936;28;20757;-63
2022/03/02 05:54:12;;;;;;;1.80;1.70;;;0.90;99.90;;;;;;5061497;28;20203;-65
2022/03/02 05:56:40;;;;;;;1.95;1.85;;;0.90;99.90;;;;;;5079002;28;20254;-65
2022/03/02 05:59:08;;;;;;;1.90;1.80;;;0.90;99.90;;;;;;5074383;28;20230;-63
2022/03/02 06:01:35;;;;;;;1.90;1.80;;;0.90;99.90;;;;;;5072897;28;20196;-65
2022/03/02 06:04:03;;;;;;;1.70;1.60;;;0.90;99.90;;;;;;5070147;28;20230;-63
2022/03/02 06:06:32;;;;;;;1.80;1.70;;;0.80;99.90;;;;;;5070211;28;20306;-65
2022/03/02 06:09:00;;;;;;;2.00;1.90;;;0.70;99.90;;;;;;5069412;28;20195;-64
2022/03/02 06:11:28;;;;;;;1.83;1.73;;;0.70;99.90;;;;;;5079737;28;20314;-64
2022/03/02 06:13:55;;;;;;;1.85;1.75;;;0.70;99.90;;;;;;5070581;28;20249;-63
2022/03/02 06:16:22;;;;;;;1.90;1.80;;;0.70;99.90;;;;;;5071449;28;20310;-63
2022/03/02 06:18:50;;;;;;;2.00;1.90;;;0.70;99.90;;;;;;5067342;28;20199;-64
2022/03/02 06:21:19;;;;;;;1.90;1.80;;;0.60;99.90;;;;;;5067911;28;20294;-64
2022/03/02 06:23:48;;;;;;;1.90;1.80;;;0.70;99.90;;;;;;5071273;28;20776;-64
2022/03/02 06:26:17;;;;;;;1.98;1.88;;;0.70;99.90;;;;;;5066685;28;20322;-63
2022/03/02 06:28:44;;;;;;;2.00;1.90;;;0.70;99.90;;;;;;5074350;28;20283;-63
2022/03/02 06:31:11;;;;;;;2.17;2.08;;;0.70;99.90;;;;;;5059474;28;20307;-63
2022/03/02 06:33:38;;;;;;;1.97;1.87;;;0.80;99.90;;;;;;5062060;28;20290;-65
2022/03/02 06:36:05;;;;;;;1.83;1.73;;;0.80;99.90;;;;;;5078177;28;20311;-63
2022/03/02 06:38:32;;;;;;;3.20;2.05;;;0.80;99.90;;;;;;5069457;28;20228;-63
2022/03/02 06:41:15;;;;;;;2.17;2.08;;;0.90;99.90;;;;;;5069185;28;20692;-66
2022/03/02 06:43:51;;;;;;;1.98;1.88;;;0.90;99.90;;;;;;5075329;28;20281;-62
2022/03/02 06:46:28;;;;;;;2.00;1.90;;;0.90;99.90;;;;;;5079779;28;20314;-63
2022/03/02 06:49:01;;;;;;;1.90;1.80;;;1.00;99.90;;;;;;5076735;28;20248;-64
2022/03/02 06:51:30;;;;;;;2.00;1.90;;;1.00;99.90;;;;;;5076344;28;20195;-63
2022/03/02 06:53:59;;;;;;;1.88;1.77;;;1.10;99.90;;;;;;5081643;28;20666;-64
2022/03/02 06:56:31;;;;;;;1.93;1.83;;;1.10;99.90;;;;;;5064869;28;20756;-63
2022/03/02 06:59:01;;;;;;;2.50;2.10;;;1.10;99.90;;;;;;5074475;28;20618;-63
2022/03/02 07:01:29;;;;;;;1.77;1.67;;;1.10;99.90;;;;;;5080722;28;20724;-63
2022/03/02 07:03:59;;;;;;;2.15;2.05;;;1.20;99.90;;;;;;5089316;28;20195;-64
2022/03/02 07:06:27;;;;;;;2.10;1.90;;;1.20;99.90;;;;;;5088992;28;20756;-62
2022/03/02 07:08:55;;;;;;;2.10;2.00;;;1.20;99.90;;;;;;5088992;28;20659;-62
2022/03/02 07:11:22;;;;;;;2.22;2.10;;;1.30;99.90;;;;;;5088860;28;20226;-63
2022/03/02 07:13:51;;;;;;;2.45;2.35;;;1.40;99.90;;;;;;5087281;28;20278;-61
2022/03/02 07:16:21;;;;;;;1.88;1.77;;;1.40;99.90;;;;;;5085740;28;20253;-63
2022/03/02 07:18:48;;;;;;;1.92;1.83;;;1.40;99.90;;;;;;5082691;28;20211;-63
2022/03/02 07:21:16;;;;;;;1.90;1.80;;;1.50;99.90;;;;;;5086113;28;20206;-63
2022/03/02 07:23:47;;;;;;;2.30;2.20;;;1.60;99.90;;;;;;5091658;28;20256;-63
2022/03/02 07:26:18;;;;;;;1.87;1.77;;;1.70;99.90;;;;;;5089699;28;20238;-62
2022/03/02 07:28:48;;;;;;;1.63;1.52;;;1.80;99.90;;;;;;5088537;28;20270;-63
2022/03/02 07:31:20;;;;;;;2.00;1.90;;;2.00;99.90;;;;;;5089267;28;20670;-62
2022/03/02 07:33:51;;;;;;;1.85;1.75;;;2.10;99.90;;;;;;5083972;28;20218;-63
2022/03/02 07:36:20;;;;;;;1.80;1.70;;;2.30;99.90;;;;;;5079100;28;20219;-62
2022/03/02 07:38:47;;;;;;;1.85;1.75;;;2.50;99.90;;;;;;5078392;28;20245;-63
2022/03/02 07:41:15;;;;;;;1.75;1.65;;;2.60;99.90;;;;;;5067310;28;20287;-62
2022/03/02 07:43:42;;;;;;;1.70;1.60;;;2.80;99.90;;;;;;5071447;28;20308;-62
2022/03/02 07:46:10;;;;;;;1.83;1.73;;;2.90;99.90;;;;;;5063996;28;20225;-63
2022/03/02 07:48:39;;;;;;;1.75;1.65;;;3.10;99.90;;;;;;5072500;28;20214;-64
2022/03/02 07:51:08;;;;;;;1.80;1.70;;;3.30;99.90;;;;;;5072119;28;20245;-63
2022/03/02 07:53:41;;;;;;;2.28;2.17;;;3.40;99.90;;;;;;5071559;28;20310;-62
2022/03/02 07:56:09;;;;;;;2.20;2.10;;;3.60;99.90;;;;;;5071971;28;20234;-64
2022/03/02 07:58:39;;;;;;;2.50;2.40;;;3.80;99.90;;;;;;5072522;28;20207;-64
2022/03/02 08:01:07;;;;;;;2.50;2.40;;;3.80;99.90;;;;;;5071972;28;20214;-64
2022/03/02 08:03:38;;;;;;;2.53;2.42;;;3.70;99.90;;;;;;5072150;28;20290;-64
2022/03/02 08:06:07;;;;;;;2.42;2.33;;;3.70;99.90;;;;;;5072268;28;20227;-65
2022/03/02 08:08:36;;;;;;;2.70;2.60;;;3.70;99.90;;;;;;5071694;28;20213;-64
2022/03/02 08:11:03;;;;;;;2.57;2.47;;;3.80;99.90;;;;;;5071761;28;20299;-62
2022/03/02 08:13:32;;;;;;;2.78;2.58;;;4.00;99.90;;;;;;5071489;28;20223;-62
2022/03/02 08:15:59;;;;;;;2.50;2.40;;;4.10;99.90;;;;;;5071914;28;20232;-64
2022/03/02 08:18:26;;;;;;;2.50;2.40;;;4.20;99.90;;;;;;5071997;28;20286;-63
2022/03/02 08:20:57;;;;;;;2.40;2.30;;;4.30;99.90;;;;;;5074456;28;20213;-64
2022/03/02 08:23:28;;;;;;;2.60;2.40;;;4.20;99.90;;;;;;5088944;28;20539;-62
2022/03/02 08:25:55;;;;;;;2.25;2.15;;;4.30;99.90;;;;;;5089354;28;20214;-62
2022/03/02 08:28:23;;;;;;;2.35;2.25;;;4.00;99.90;;;;;;5088474;28;20271;-63
2022/03/02 08:30:52;;;;;;;2.40;2.30;;;3.90;99.90;;;;;;5073348;28;20204;-63
2022/03/02 08:33:27;;;;;;;2.35;2.25;;;4.00;99.90;;;;;;5070357;28;20229;-62
2022/03/02 08:35:56;;;;;;;2.22;2.05;;;4.10;99.90;;;;;;5071781;28;20735;-64
2022/03/02 08:38:23;;;;;;;2.95;2.75;;;4.20;99.90;;;;;;5073971;28;20306;-63
2022/03/02 08:40:50;;;;;;;2.50;2.40;;;4.30;99.90;;;;;;5058031;28;20200;-62
2022/03/02 08:43:17;;;;;;;2.33;2.22;;;4.30;99.90;;;;;;5052334;28;20200;-62
2022/03/02 08:45:47;;;;;;;2.58;2.40;;;4.30;99.90;;;;;;5051572;28;20214;-63
2022/03/02 08:48:15;;;;;;;3.53;2.72;;;4.40;99.90;;;;;;5051804;28;20291;-63
2022/03/02 08:50:44;;;;;;;2.70;2.50;;;4.30;99.90;;;;;;5051567;28;20210;-62
2022/03/02 08:53:14;;;;;;;2.30;2.20;;;4.30;99.90;;;;;;5051937;28;20636;-64
2022/03/02 08:55:43;;;;;;;2.43;2.33;;;4.30;99.90;;;;;;5057684;28;20295;-63
2022/03/02 08:58:10;;;;;;;2.33;2.23;;;4.30;99.90;;;;;;5058764;28;20203;-63
2022/03/02 09:00:38;;;;;;;2.55;2.45;;;4.30;99.90;;;;;;5056518;28;20294;-62
2022/03/02 09:03:06;;;;;;;2.53;2.42;;;4.30;99.90;;;;;;5060267;28;20200;-62
2022/03/02 09:05:34;;;;;;;2.20;2.10;;;4.40;99.90;;;;;;5058764;28;20403;-63
2022/03/02 09:08:00;;;;;;;2.63;2.53;;;4.60;99.90;;;;;;5057452;28;20714;-62
2022/03/02 09:10:29;;;;;;;2.40;2.30;;;4.70;99.90;;;;;;5056334;28;20547;-62
2022/03/02 09:12:59;;;;;;;2.57;2.47;;;4.80;99.90;;;;;;5069688;28;20299;-63
2022/03/02 09:15:26;;;;;;;2.72;2.60;;;5.00;99.90;;;;;;5073417;28;20203;-62
2022/03/02 09:17:53;;;;;;;3.00;2.80;;;5.00;99.90;;;;;;5072860;28;20223;-64
2022/03/02 09:20:20;;;;;;;2.90;2.70;;;5.00;99.90;;;;;;5089324;28;20249;-63
2022/03/02 09:22:47;;;;;;;2.60;2.50;;;5.00;99.90;;;;;;5088847;28;20226;-62
2022/03/02 09:25:14;;;;;;;2.72;2.63;;;4.90;99.90;;;;;;5082557;28;20203;-63
2022/03/02 09:27:43;;;;;;;2.35;2.25;;;4.90;99.90;;;;;;5082014;28;20231;-63
2022/03/02 09:30:12;;;;;;;2.67;2.47;;;4.80;99.90;;;;;;5082553;28;20694;-66
2022/03/02 09:32:41;;;;;;;2.80;2.70;;;4.80;99.90;;;;;;5074824;28;20220;-63
2022/03/02 09:35:13;;;;;;;2.75;2.55;;;4.80;99.90;;;;;;5054700;28;20239;-64
2022/03/02 09:37:42;;;;;;;2.58;2.38;;;4.90;99.90;;;;;;5057075;28;20235;-63
2022/03/02 09:40:21;;;;;;;2.80;2.70;;;5.00;99.90;;;;;;5058366;28;20750;-65
2022/03/02 09:42:55;;;;;;;2.50;2.40;;;5.20;99.90;;;;;;5061004;28;20200;-64
2022/03/02 09:45:25;;;;;;;2.80;2.60;;;5.30;99.90;;;;;;5062491;28;20670;-63
2022/03/02 09:47:56;;;;;;;2.30;2.20;;;5.30;99.90;;;;;;5064567;28;20663;-65
2022/03/02 09:50:25;;;;;;;2.80;2.60;;;5.40;99.90;;;;;;5066258;28;20291;-63
2022/03/02 09:52:54;;;;;;;2.70;2.60;;;5.50;99.90;;;;;;5066119;28;20283;-63
2022/03/02 09:55:24;;;;;;;2.63;2.50;;;5.60;99.90;;;;;;5054494;28;20589;-62
2022/03/02 09:57:55;;;;;;;2.70;2.60;;;5.70;99.90;;;;;;5055597;28;20224;-63
2022/03/02 10:00:25;;;;;;;2.58;2.47;;;5.70;99.90;;;;;;5053026;28;20487;-63
2022/03/02 10:02:55;;;;;;;2.60;2.50;;;5.80;99.90;;;;;;5051708;28;20283;-63
2022/03/02 10:05:25;;;;;;;3.00;2.80;;;5.80;99.90;;;;;;5051027;28;20246;-62
2022/03/02 10:07:58;;;;;;;2.95;2.80;;;5.80;99.90;;;;;;5050967;28;20220;-65
2022/03/02 10:10:27;;;;;;;3.17;2.97;;;5.80;99.90;;;;;;5052166;28;20276;-64
2022/03/02 10:12:58;;;;;;;2.50;2.40;;;5.80;99.90;;;;;;5053907;28;20318;-63
2022/03/02 10:15:27;;;;;;;2.80;2.60;;;5.80;99.90;;;;;;5053529;28;20208;-64
2022/03/02 10:17:57;;;;;;;2.50;2.40;;;5.80;99.90;;;;;;5054440;28;20306;-63
2022/03/02 10:20:26;;;;;;;2.70;2.60;;;5.80;99.90;;;;;;5054699;28;20235;-62
2022/03/02 10:23:05;;;;;;;2.80;2.70;;;5.80;99.90;;;;;;5054789;28;20646;-63
2022/03/02 10:25:50;;;;;;;3.10;2.90;;;5.80;99.90;;;;;;5054904;28;20228;-64
2022/03/02 10:28:27;;;;;;;2.53;2.43;;;5.80;99.90;;;;;;5056833;28;20295;-64
2022/03/02 10:31:24;;;;;;;2.80;2.60;;;5.70;99.90;;;;;;5057074;28;20207;-63
2022/03/02 10:33:54;;;;;;;2.90;2.77;;;5.80;99.90;;;;;;5056670;28;20230;-63
2022/03/02 10:36:25;;;;;;;3.30;3.10;;;5.90;99.90;;;;;;5054185;28;20258;-63
2022/03/02 10:39:06;;;;;;;2.77;2.67;;;6.00;99.90;;;;;;5054325;28;20279;-63
2022/03/02 10:41:37;;;;;;;3.00;2.80;;;6.00;99.90;;;;;;5053707;28;20207;-64
2022/03/02 10:44:09;;;;;;;3.00;2.87;;;6.00;99.90;;;;;;5054835;28;20621;-63
2022/03/02 10:46:42;;;;;;;2.90;2.70;;;6.10;99.90;;;;;;5073136;28;20231;-64
2022/03/02 10:49:17;;;;;;;3.03;2.83;;;6.20;99.90;;;;;;5087210;28;20230;-64
2022/03/02 10:51:45;;;;;;;2.80;2.70;;;6.30;99.90;;;;;;5075907;28;20235;-63
2022/03/02 10:54:17;;;;;;;3.60;3.40;;;6.50;99.90;;;;;;5082046;28;20687;-64
2022/03/02 10:56:45;;;;;;;3.23;3.03;;;6.60;99.90;;;;;;5075479;28;20612;-64
2022/03/02 10:59:16;;;;;;;3.27;3.07;;;6.70;99.90;;;;;;5076418;28;20287;-63
2022/03/02 11:01:45;;;;;;;2.90;2.72;;;7.10;99.90;;;;;;5067090;28;20211;-63
2022/03/02 11:04:13;;;;;;;2.93;2.77;;;7.00;99.90;;;;;;5073997;28;20184;-65
2022/03/02 11:06:40;;;;;;;2.88;2.70;;;7.00;99.90;;;;;;5074029;28;20719;-63
2022/03/02 11:09:07;;;;;;;2.90;2.80;;;7.00;99.90;;;;;;5074119;28;20213;-64
2022/03/02 11:11:36;;;;;;;3.78;3.58;;;7.10;99.90;;;;;;5073487;28;20202;-63
2022/03/02 11:14:04;;;;;;;5.03;4.73;;;6.90;99.90;;;;;;5073065;28;20219;-64
2022/03/02 11:16:32;;;;;;;3.85;3.65;;;6.60;99.90;;;;;;5079697;28;20330;-64
2022/03/02 11:19:10;;;;;;;3.80;3.60;;;6.70;99.90;;;;;;5077432;28;20433;-64
2022/03/02 11:21:40;;;;;;;3.97;3.78;;;6.90;99.90;;;;;;5073367;28;20209;-64
2022/03/02 11:24:09;;;;;;;4.22;3.92;;;7.00;99.90;;;;;;5078308;28;20262;-65
2022/03/02 11:26:37;;;;;;;3.65;3.45;;;7.10;99.90;;;;;;5076017;28;20601;-64
2022/03/02 11:29:10;;;;;;;3.10;2.90;;;7.10;99.90;;;;;;5079117;28;20215;-64
2022/03/02 11:31:43;;;;;;;3.40;3.10;;;7.30;99.90;;;;;;5074724;28;20535;-65
2022/03/02 11:34:13;;;;;;;2.83;2.72;;;7.40;99.90;;;;;;5055940;28;20691;-65
2022/03/02 11:36:44;;;;;;;2.95;2.75;;;7.40;99.90;;;;;;5072156;28;20254;-63
2022/03/02 11:39:12;;;;;;;3.00;2.80;;;7.40;99.90;;;;;;5069538;28;20208;-65
2022/03/02 11:41:41;;;;;;;2.70;2.50;;;7.20;99.90;;;;;;5080667;28;20345;-63
2022/03/02 11:44:27;;;;;;;3.00;2.90;;;7.30;99.90;;;;;;5081846;28;20194;-64
2022/03/02 11:46:56;;;;;;;2.83;2.70;;;7.30;99.90;;;;;;5087277;28;20219;-63
2022/03/02 11:49:44;;;;;;;3.40;3.20;;;7.50;99.90;;;;;;5086436;28;20293;-63
2022/03/02 11:52:14;;;;;;;2.55;2.42;;;7.60;99.90;;;;;;5070587;28;20275;-65
2022/03/02 11:54:44;;;;;;;2.90;2.70;;;7.60;99.90;;;;;;5067764;28;20220;-63
2022/03/02 11:57:12;;;;;;;3.10;3.00;;;7.60;99.90;;;;;;5081499;28;20226;-64
2022/03/02 11:59:39;;;;;;;3.28;3.05;;;7.50;99.90;;;;;;5077108;28;20208;-64
2022/03/02 12:02:15;;;;;;;3.23;3.03;;;7.50;99.90;;;;;;5079720;28;20645;-63
2022/03/02 12:04:57;;;;;;;3.17;2.97;;;7.50;99.90;;;;;;5075178;28;20201;-63
2022/03/02 12:07:24;;;;;;;3.20;2.90;;;7.60;99.90;;;;;;5072370;28;20214;-63
2022/03/02 12:09:51;;;;;;;2.95;2.78;;;7.70;99.90;;;;;;5079630;28;20241;-64
2022/03/02 12:12:21;;;;;;;3.38;3.17;;;7.80;99.90;;;;;;5074997;28;20203;-65
2022/03/02 12:14:51;;;;;;;3.08;2.88;;;8.00;99.90;;;;;;5067264;28;20223;-64
2022/03/02 12:17:25;;;;;;;2.92;2.80;;;8.10;99.90;;;;;;5054250;28;20227;-65
2022/03/02 12:19:55;;;;;;;2.80;2.70;;;8.10;99.90;;;;;;5068611;28;20199;-63
2022/03/02 12:22:22;;;;;;;3.30;3.10;;;8.20;99.90;;;;;;5076173;28;20226;-63
2022/03/02 12:24:50;;;;;;;3.20;3.00;;;8.40;99.90;;;;;;5079943;28;20226;-63
2022/03/02 12:27:19;;;;;;;2.80;2.70;;;8.40;99.90;;;;;;5077386;28;20265;-65
2022/03/02 12:29:53;;;;;;;3.30;3.10;;;8.50;99.90;;;;;;5078744;28;20202;-65
2022/03/02 12:32:21;;;;;;;2.80;2.70;;;8.60;99.90;;;;;;5067484;28;20266;-62
2022/03/02 12:34:52;;;;;;;3.28;3.08;;;8.60;99.90;;;;;;5064784;28;20215;-64
2022/03/02 12:37:21;;;;;;;3.05;2.85;;;8.70;99.90;;;;;;5073524;28;20700;-65
2022/03/02 12:39:49;;;;;;;2.78;2.67;;;8.70;99.90;;;;;;5082220;28;20207;-63
2022/03/02 12:42:16;;;;;;;3.37;3.17;;;8.80;99.90;;;;;;5081825;28;20552;-64
2022/03/02 12:44:45;;;;;;;3.43;3.23;;;8.90;99.90;;;;;;5075519;28;20203;-64
2022/03/02 12:47:15;;;;;;;3.10;3.00;;;8.90;99.90;;;;;;5079771;28;20253;-64
2022/03/02 12:49:43;;;;;;;3.17;2.97;;;9.00;99.90;;;;;;5067046;28;20280;-63
2022/03/02 12:52:13;;;;;;;3.22;3.03;;;9.20;99.90;;;;;;5071586;28;20448;-66
2022/03/02 12:54:42;;;;;;;3.40;3.20;;;9.50;99.90;;;;;;5071282;28;20228;-63
2022/03/02 12:57:11;;;;;;;3.10;2.90;;;9.50;99.90;;;;;;5068161;28;20219;-64
2022/03/02 12:59:38;;;;;;;2.90;2.80;;;9.40;99.90;;;;;;5078119;28;20235;-64
2022/03/02 13:02:07;;;;;;;3.40;3.20;;;9.40;99.90;;;;;;5072313;28;20579;-65
2022/03/02 13:04:42;;;;;;;3.17;2.97;;;9.50;99.90;;;;;;5074503;28;20235;-64
2022/03/02 13:07:17;;;;;;;3.23;3.03;;;9.40;99.90;;;;;;5074679;28;20271;-64